sensor_id;sensor_type;location;lat;lon;timestamp;pressure;altitude;pressure_sealevel;temperature;humidity
31771;BME280;18343;50.152;8.182;2023-03-12T00:01:41;97053.06;;;0.55;68.27
31771;BME280;18343;50.152;8.182;2023-03-12T00:04:26;97061.69;;;0.57;68.57
31771;BME280;18343;50.152;8.182;2023-03-12T00:07:10;97069.50;;;0.58;69.09
31771;BME280;18343;50.152;8.182;2023-03-12T00:09:58;97059.88;;;0.57;68.71
31771;BME280;18343;50.152;8.182;2023-03-12T00:12:42;97066.47;;;0.53;68.83
31771;BME280;18343;50.152;8.182;2023-03-12T00:15:27;97066.28;;;0.55;69.51
31771;BME280;18343;50.152;8.182;2023-03-12T00:18:13;97074.38;;;0.63;70.09
31771;BME280;18343;50.152;8.182;2023-03-12T00:21:01;97065.03;;;0.68;69.76
31771;BME280;18343;50.152;8.182;2023-03-12T00:23:47;97067.56;;;0.70;69.69
31771;BME280;18343;50.152;8.182;2023-03-12T00:26:32;97058.38;;;0.74;70.20
31771;BME280;18343;50.152;8.182;2023-03-12T00:29:16;97058.78;;;0.79;70.44
31771;BME280;18343;50.152;8.182;2023-03-12T00:32:01;97061.13;;;0.82;70.33
31771;BME280;18343;50.152;8.182;2023-03-12T00:34:52;97059.16;;;0.84;69.42
31771;BME280;18343;50.152;8.182;2023-03-12T00:37:37;97045.00;;;0.76;69.66
31771;BME280;18343;50.152;8.182;2023-03-12T00:40:22;97042.75;;;0.81;70.63
31771;BME280;18343;50.152;8.182;2023-03-12T00:43:07;97046.38;;;0.80;70.12
31771;BME280;18343;50.152;8.182;2023-03-12T00:45:52;97045.41;;;0.81;70.61
31771;BME280;18343;50.152;8.182;2023-03-12T00:48:37;97040.50;;;0.86;71.27
31771;BME280;18343;50.152;8.182;2023-03-12T00:51:23;97048.84;;;0.91;70.98
31771;BME280;18343;50.152;8.182;2023-03-12T00:54:08;97052.19;;;0.93;71.17
31771;BME280;18343;50.152;8.182;2023-03-12T00:56:53;97042.31;;;0.95;70.95
31771;BME280;18343;50.152;8.182;2023-03-12T00:59:38;97039.50;;;0.96;71.57
31771;BME280;18343;50.152;8.182;2023-03-12T01:02:23;97045.50;;;0.98;71.50
31771;BME280;18343;50.152;8.182;2023-03-12T01:05:11;97046.06;;;1.02;72.14
31771;BME280;18343;50.152;8.182;2023-03-12T01:08:00;97045.50;;;1.08;71.99
31771;BME280;18343;50.152;8.182;2023-03-12T01:10:45;97043.50;;;1.10;72.07
31771;BME280;18343;50.152;8.182;2023-03-12T01:13:29;97055.09;;;1.09;71.65
31771;BME280;18343;50.152;8.182;2023-03-12T01:16:14;97053.25;;;1.10;71.49
31771;BME280;18343;50.152;8.182;2023-03-12T01:19:01;97046.97;;;1.11;72.45
31771;BME280;18343;50.152;8.182;2023-03-12T01:21:46;97047.53;;;1.14;72.44
31771;BME280;18343;50.152;8.182;2023-03-12T01:24:32;97040.16;;;1.18;72.21
31771;BME280;18343;50.152;8.182;2023-03-12T01:27:16;97036.38;;;1.20;72.36
31771;BME280;18343;50.152;8.182;2023-03-12T01:30:02;97035.25;;;1.23;72.32
31771;BME280;18343;50.152;8.182;2023-03-12T01:32:47;97033.31;;;1.25;72.42
31771;BME280;18343;50.152;8.182;2023-03-12T01:35:36;97034.53;;;1.30;72.36
31771;BME280;18343;50.152;8.182;2023-03-12T01:38:20;97035.22;;;1.32;72.38
31771;BME280;18343;50.152;8.182;2023-03-12T01:41:06;97038.44;;;1.36;72.87
31771;BME280;18343;50.152;8.182;2023-03-12T01:43:51;97033.66;;;1.40;72.73
31771;BME280;18343;50.152;8.182;2023-03-12T01:46:37;97036.28;;;1.40;72.42
31771;BME280;18343;50.152;8.182;2023-03-12T01:49:25;97025.56;;;1.41;72.99
31771;BME280;18343;50.152;8.182;2023-03-12T01:52:14;97025.25;;;1.44;73.02
31771;BME280;18343;50.152;8.182;2023-03-12T01:55:03;97017.31;;;1.44;73.40
31771;BME280;18343;50.152;8.182;2023-03-12T01:57:54;97013.25;;;1.50;73.46
31771;BME280;18343;50.152;8.182;2023-03-12T02:00:40;97015.75;;;1.51;73.82
31771;BME280;18343;50.152;8.182;2023-03-12T02:03:25;97014.94;;;1.51;73.67
31771;BME280;18343;50.152;8.182;2023-03-12T02:06:15;97015.63;;;1.53;73.26
31771;BME280;18343;50.152;8.182;2023-03-12T02:09:02;97013.38;;;1.58;73.17
31771;BME280;18343;50.152;8.182;2023-03-12T02:11:49;97014.06;;;1.60;73.35
31771;BME280;18343;50.152;8.182;2023-03-12T02:14:35;97014.28;;;1.66;73.49
31771;BME280;18343;50.152;8.182;2023-03-12T02:17:21;97008.69;;;1.69;72.99
31771;BME280;18343;50.152;8.182;2023-03-12T02:20:13;97007.69;;;1.70;73.26
31771;BME280;18343;50.152;8.182;2023-03-12T02:23:02;97005.88;;;1.71;73.27
31771;BME280;18343;50.152;8.182;2023-03-12T02:25:51;97006.72;;;1.72;73.36
31771;BME280;18343;50.152;8.182;2023-03-12T02:28:38;97000.44;;;1.73;73.65
31771;BME280;18343;50.152;8.182;2023-03-12T02:31:26;97003.63;;;1.76;73.59
31771;BME280;18343;50.152;8.182;2023-03-12T02:34:14;96995.69;;;1.76;73.47
31771;BME280;18343;50.152;8.182;2023-03-12T02:36:59;96993.72;;;1.78;73.00
31771;BME280;18343;50.152;8.182;2023-03-12T02:39:50;96982.97;;;1.80;73.52
31771;BME280;18343;50.152;8.182;2023-03-12T02:42:38;96986.31;;;1.82;73.60
31771;BME280;18343;50.152;8.182;2023-03-12T02:45:25;96986.00;;;1.85;73.54
31771;BME280;18343;50.152;8.182;2023-03-12T02:48:10;96991.84;;;1.88;73.82
31771;BME280;18343;50.152;8.182;2023-03-12T02:50:55;96984.56;;;1.90;73.58
31771;BME280;18343;50.152;8.182;2023-03-12T02:53:39;96978.44;;;1.90;73.66
31771;BME280;18343;50.152;8.182;2023-03-12T02:56:26;96978.13;;;1.93;73.91
31771;BME280;18343;50.152;8.182;2023-03-12T02:59:14;96968.88;;;1.97;73.84
31771;BME280;18343;50.152;8.182;2023-03-12T03:01:59;96976.16;;;1.95;73.68
31771;BME280;18343;50.152;8.182;2023-03-12T03:04:44;96965.25;;;1.98;73.98
31771;BME280;18343;50.152;8.182;2023-03-12T03:07:28;96974.97;;;1.89;73.80
31771;BME280;18343;50.152;8.182;2023-03-12T03:10:12;96970.00;;;1.94;74.10
31771;BME280;18343;50.152;8.182;2023-03-12T03:12:57;96967.59;;;2.01;74.22
31771;BME280;18343;50.152;8.182;2023-03-12T03:15:43;96966.31;;;2.05;73.91
31771;BME280;18343;50.152;8.182;2023-03-12T03:18:30;96954.56;;;2.08;73.94
31771;BME280;18343;50.152;8.182;2023-03-12T03:21:16;96954.41;;;2.09;73.51
31771;BME280;18343;50.152;8.182;2023-03-12T03:24:01;96947.31;;;2.10;73.72
31771;BME280;18343;50.152;8.182;2023-03-12T03:26:45;96946.16;;;2.12;73.68
31771;BME280;18343;50.152;8.182;2023-03-12T03:29:30;96954.97;;;2.13;73.55
31771;BME280;18343;50.152;8.182;2023-03-12T03:32:16;96955.09;;;2.11;73.60
31771;BME280;18343;50.152;8.182;2023-03-12T03:35:01;96959.34;;;2.04;73.75
31771;BME280;18343;50.152;8.182;2023-03-12T03:37:46;96945.09;;;2.05;73.89
31771;BME280;18343;50.152;8.182;2023-03-12T03:40:30;96938.44;;;2.01;73.72
31771;BME280;18343;50.152;8.182;2023-03-12T03:43:15;96950.94;;;1.91;73.90
31771;BME280;18343;50.152;8.182;2023-03-12T03:46:03;96950.03;;;2.00;74.16
31771;BME280;18343;50.152;8.182;2023-03-12T03:48:49;96957.81;;;2.01;73.78
31771;BME280;18343;50.152;8.182;2023-03-12T03:51:34;96957.22;;;2.08;74.00
31771;BME280;18343;50.152;8.182;2023-03-12T03:54:18;96956.94;;;2.11;73.89
31771;BME280;18343;50.152;8.182;2023-03-12T03:57:03;96951.38;;;2.04;73.45
31771;BME280;18343;50.152;8.182;2023-03-12T03:59:51;96956.25;;;2.09;73.82
31771;BME280;18343;50.152;8.182;2023-03-12T04:02:35;96957.91;;;2.10;74.01
31771;BME280;18343;50.152;8.182;2023-03-12T04:05:21;96952.75;;;2.08;73.71
31771;BME280;18343;50.152;8.182;2023-03-12T04:08:06;96959.03;;;2.07;73.97
31771;BME280;18343;50.152;8.182;2023-03-12T04:10:51;96957.13;;;1.99;73.90
31771;BME280;18343;50.152;8.182;2023-03-12T04:13:37;96957.06;;;2.09;74.07
31771;BME280;18343;50.152;8.182;2023-03-12T04:16:22;96956.47;;;2.15;73.81
31771;BME280;18343;50.152;8.182;2023-03-12T04:19:06;96966.59;;;2.20;73.87
31771;BME280;18343;50.152;8.182;2023-03-12T04:21:52;96978.88;;;2.03;73.39
31771;BME280;18343;50.152;8.182;2023-03-12T04:24:37;96970.19;;;2.11;73.71
31771;BME280;18343;50.152;8.182;2023-03-12T04:27:21;96966.78;;;2.18;73.87
31771;BME280;18343;50.152;8.182;2023-03-12T04:30:08;96973.97;;;2.26;73.99
31771;BME280;18343;50.152;8.182;2023-03-12T04:32:53;96973.50;;;2.30;73.78
31771;BME280;18343;50.152;8.182;2023-03-12T04:35:37;96967.06;;;2.33;73.62
31771;BME280;18343;50.152;8.182;2023-03-12T04:38:25;96957.97;;;2.35;73.52
31771;BME280;18343;50.152;8.182;2023-03-12T04:41:12;96950.69;;;2.37;73.88
31771;BME280;18343;50.152;8.182;2023-03-12T04:43:58;96953.88;;;2.41;73.70
31771;BME280;18343;50.152;8.182;2023-03-12T04:46:42;96954.84;;;2.40;73.51
31771;BME280;18343;50.152;8.182;2023-03-12T04:49:27;96948.72;;;2.40;73.40
31771;BME280;18343;50.152;8.182;2023-03-12T04:52:12;96950.38;;;2.41;73.56
31771;BME280;18343;50.152;8.182;2023-03-12T04:54:58;96944.09;;;2.42;73.59
31771;BME280;18343;50.152;8.182;2023-03-12T04:57:42;96937.50;;;2.46;73.67
31771;BME280;18343;50.152;8.182;2023-03-12T05:00:27;96937.00;;;2.50;73.77
31771;BME280;18343;50.152;8.182;2023-03-12T05:03:11;96932.66;;;2.41;72.89
31771;BME280;18343;50.152;8.182;2023-03-12T05:05:56;96930.44;;;2.36;73.18
31771;BME280;18343;50.152;8.182;2023-03-12T05:08:40;96920.22;;;2.42;73.79
31771;BME280;18343;50.152;8.182;2023-03-12T05:11:26;96923.38;;;2.45;73.53
31771;BME280;18343;50.152;8.182;2023-03-12T05:14:11;96934.66;;;2.47;73.36
31771;BME280;18343;50.152;8.182;2023-03-12T05:16:56;96932.00;;;2.47;73.24
31771;BME280;18343;50.152;8.182;2023-03-12T05:19:41;96931.16;;;2.47;73.39
31771;BME280;18343;50.152;8.182;2023-03-12T05:22:25;96925.72;;;2.48;73.55
31771;BME280;18343;50.152;8.182;2023-03-12T05:25:10;96926.50;;;2.41;73.46
31771;BME280;18343;50.152;8.182;2023-03-12T05:27:56;96923.16;;;2.38;73.52
31771;BME280;18343;50.152;8.182;2023-03-12T05:30:41;96932.66;;;2.41;73.85
31771;BME280;18343;50.152;8.182;2023-03-12T05:33:27;96927.19;;;2.43;73.69
31771;BME280;18343;50.152;8.182;2023-03-12T05:36:13;96917.09;;;2.46;73.82
31771;BME280;18343;50.152;8.182;2023-03-12T05:38:58;96908.78;;;2.49;73.92
31771;BME280;18343;50.152;8.182;2023-03-12T05:41:42;96914.63;;;2.53;74.31
31771;BME280;18343;50.152;8.182;2023-03-12T05:44:28;96916.97;;;2.56;73.94
31771;BME280;18343;50.152;8.182;2023-03-12T05:47:13;96918.94;;;2.54;73.77
31771;BME280;18343;50.152;8.182;2023-03-12T05:49:57;96917.38;;;2.17;76.34
31771;BME280;18343;50.152;8.182;2023-03-12T05:52:42;96911.34;;;2.33;75.16
31771;BME280;18343;50.152;8.182;2023-03-12T05:55:27;96915.06;;;2.40;75.09
31771;BME280;18343;50.152;8.182;2023-03-12T05:58:11;96904.69;;;2.29;75.74
31771;BME280;18343;50.152;8.182;2023-03-12T06:00:57;96909.38;;;2.35;75.00
31771;BME280;18343;50.152;8.182;2023-03-12T06:03:42;96901.72;;;2.32;74.92
31771;BME280;18343;50.152;8.182;2023-03-12T06:06:28;96900.47;;;2.18;76.38
31771;BME280;18343;50.152;8.182;2023-03-12T06:09:13;96904.31;;;2.24;75.08
31771;BME280;18343;50.152;8.182;2023-03-12T06:11:57;96910.97;;;2.28;75.47
31771;BME280;18343;50.152;8.182;2023-03-12T06:14:42;96913.00;;;2.34;75.65
31771;BME280;18343;50.152;8.182;2023-03-12T06:17:29;96908.22;;;2.37;75.21
31771;BME280;18343;50.152;8.182;2023-03-12T06:20:14;96904.75;;;2.37;75.52
31771;BME280;18343;50.152;8.182;2023-03-12T06:22:59;96900.28;;;2.37;75.65
31771;BME280;18343;50.152;8.182;2023-03-12T06:25:44;96901.25;;;2.36;76.56
31771;BME280;18343;50.152;8.182;2023-03-12T06:28:29;96898.00;;;2.43;76.27
31771;BME280;18343;50.152;8.182;2023-03-12T06:31:13;96891.69;;;2.44;76.43
31771;BME280;18343;50.152;8.182;2023-03-12T06:34:00;96883.91;;;2.42;76.32
31771;BME280;18343;50.152;8.182;2023-03-12T06:36:44;96892.94;;;2.31;78.14
31771;BME280;18343;50.152;8.182;2023-03-12T06:39:29;96893.53;;;2.25;77.85
31771;BME280;18343;50.152;8.182;2023-03-12T06:42:13;96887.13;;;2.10;80.89
31771;BME280;18343;50.152;8.182;2023-03-12T06:44:58;96890.16;;;2.15;78.68
31771;BME280;18343;50.152;8.182;2023-03-12T06:47:43;96895.34;;;2.25;78.45
31771;BME280;18343;50.152;8.182;2023-03-12T06:50:32;96896.25;;;2.33;78.64
31771;BME280;18343;50.152;8.182;2023-03-12T06:53:17;96895.00;;;2.02;81.80
31771;BME280;18343;50.152;8.182;2023-03-12T06:56:03;96887.91;;;2.02;80.72
31771;BME280;18343;50.152;8.182;2023-03-12T06:58:48;96888.31;;;1.90;83.22
31771;BME280;18343;50.152;8.182;2023-03-12T07:01:33;96889.72;;;2.02;80.43
31771;BME280;18343;50.152;8.182;2023-03-12T07:04:17;96873.13;;;2.00;80.96
31771;BME280;18343;50.152;8.182;2023-03-12T07:07:04;96874.78;;;2.01;80.35
31771;BME280;18343;50.152;8.182;2023-03-12T07:09:48;96880.69;;;1.95;83.17
31771;BME280;18343;50.152;8.182;2023-03-12T07:12:33;96887.28;;;2.09;81.28
31771;BME280;18343;50.152;8.182;2023-03-12T07:15:17;96885.25;;;2.02;81.95
31771;BME280;18343;50.152;8.182;2023-03-12T07:18:03;96888.13;;;2.09;83.20
31771;BME280;18343;50.152;8.182;2023-03-12T07:20:48;96885.00;;;2.14;82.23
31771;BME280;18343;50.152;8.182;2023-03-12T07:23:34;96894.53;;;2.24;81.80
31771;BME280;18343;50.152;8.182;2023-03-12T07:26:19;96892.09;;;2.31;81.97
31771;BME280;18343;50.152;8.182;2023-03-12T07:29:04;96888.59;;;2.30;82.94
31771;BME280;18343;50.152;8.182;2023-03-12T07:31:49;96890.94;;;2.08;85.51
31771;BME280;18343;50.152;8.182;2023-03-12T07:34:33;96892.22;;;1.50;91.92
31771;BME280;18343;50.152;8.182;2023-03-12T07:37:18;96891.41;;;1.85;86.80
31771;BME280;18343;50.152;8.182;2023-03-12T07:40:05;96883.00;;;1.90;89.26
31771;BME280;18343;50.152;8.182;2023-03-12T07:42:50;96883.75;;;1.82;89.99
31771;BME280;18343;50.152;8.182;2023-03-12T07:45:35;96884.34;;;1.94;89.26
31771;BME280;18343;50.152;8.182;2023-03-12T07:48:20;96897.50;;;2.03;88.28
31771;BME280;18343;50.152;8.182;2023-03-12T07:51:05;96906.06;;;2.15;89.31
31771;BME280;18343;50.152;8.182;2023-03-12T07:53:50;96903.13;;;2.00;91.74
31771;BME280;18343;50.152;8.182;2023-03-12T07:56:36;96901.84;;;2.04;92.74
31771;BME280;18343;50.152;8.182;2023-03-12T07:59:20;96897.81;;;2.00;92.63
31771;BME280;18343;50.152;8.182;2023-03-12T08:02:08;96893.19;;;2.02;91.16
31771;BME280;18343;50.152;8.182;2023-03-12T08:04:53;96894.63;;;2.15;89.11
31771;BME280;18343;50.152;8.182;2023-03-12T08:07:37;96900.16;;;2.03;91.37
31771;BME280;18343;50.152;8.182;2023-03-12T08:10:22;96902.66;;;2.05;91.33
31771;BME280;18343;50.152;8.182;2023-03-12T08:13:08;96911.53;;;2.14;91.88
31771;BME280;18343;50.152;8.182;2023-03-12T08:15:53;96907.00;;;1.88;95.78
31771;BME280;18343;50.152;8.182;2023-03-12T08:18:38;96915.84;;;1.97;94.32
31771;BME280;18343;50.152;8.182;2023-03-12T08:21:22;96920.41;;;1.87;96.94
31771;BME280;18343;50.152;8.182;2023-03-12T08:24:07;96921.09;;;1.89;96.34
31771;BME280;18343;50.152;8.182;2023-03-12T08:26:52;96910.16;;;2.10;92.78
31771;BME280;18343;50.152;8.182;2023-03-12T08:29:38;96911.84;;;2.11;93.87
31771;BME280;18343;50.152;8.182;2023-03-12T08:32:23;96906.75;;;2.17;93.48
31771;BME280;18343;50.152;8.182;2023-03-12T08:35:08;96902.47;;;2.24;93.88
31771;BME280;18343;50.152;8.182;2023-03-12T08:37:53;96911.13;;;2.26;93.94
31771;BME280;18343;50.152;8.182;2023-03-12T08:40:38;96901.34;;;2.27;94.51
31771;BME280;18343;50.152;8.182;2023-03-12T08:43:23;96911.56;;;2.40;93.69
31771;BME280;18343;50.152;8.182;2023-03-12T08:46:09;96904.97;;;2.44;93.48
31771;BME280;18343;50.152;8.182;2023-03-12T08:48:53;96908.69;;;2.33;94.13
31771;BME280;18343;50.152;8.182;2023-03-12T08:51:38;96907.41;;;2.37;95.11
31771;BME280;18343;50.152;8.182;2023-03-12T08:54:23;96906.56;;;2.36;95.61
31771;BME280;18343;50.152;8.182;2023-03-12T08:57:07;96906.91;;;2.16;98.78
31771;BME280;18343;50.152;8.182;2023-03-12T08:59:52;96905.59;;;2.20;96.42
31771;BME280;18343;50.152;8.182;2023-03-12T09:02:38;96910.44;;;2.24;95.92
31771;BME280;18343;50.152;8.182;2023-03-12T09:05:23;96910.66;;;2.31;96.48
31771;BME280;18343;50.152;8.182;2023-03-12T09:08:07;96914.88;;;2.16;97.84
31771;BME280;18343;50.152;8.182;2023-03-12T09:10:52;96906.44;;;2.20;99.53
31771;BME280;18343;50.152;8.182;2023-03-12T09:13:37;96885.59;;;2.25;99.13
31771;BME280;18343;50.152;8.182;2023-03-12T09:16:22;96879.34;;;2.34;97.52
31771;BME280;18343;50.152;8.182;2023-03-12T09:19:08;96877.91;;;2.40;98.18
31771;BME280;18343;50.152;8.182;2023-03-12T09:21:53;96891.19;;;2.22;100.00
31771;BME280;18343;50.152;8.182;2023-03-12T09:24:38;96899.03;;;2.06;100.00
31771;BME280;18343;50.152;8.182;2023-03-12T09:27:22;96887.38;;;2.17;100.00
31771;BME280;18343;50.152;8.182;2023-03-12T09:30:10;96884.78;;;2.07;100.00
31771;BME280;18343;50.152;8.182;2023-03-12T09:32:55;96893.38;;;2.45;100.00
31771;BME280;18343;50.152;8.182;2023-03-12T09:35:42;96892.41;;;2.54;100.00
31771;BME280;18343;50.152;8.182;2023-03-12T09:38:28;96890.03;;;2.68;100.00
31771;BME280;18343;50.152;8.182;2023-03-12T09:41:22;96893.84;;;2.66;100.00
31771;BME280;18343;50.152;8.182;2023-03-12T09:44:12;96895.19;;;2.70;100.00
31771;BME280;18343;50.152;8.182;2023-03-12T09:47:04;96901.47;;;2.95;100.00
31771;BME280;18343;50.152;8.182;2023-03-12T09:49:55;96900.47;;;3.04;100.00
31771;BME280;18343;50.152;8.182;2023-03-12T09:52:50;96907.63;;;3.03;100.00
31771;BME280;18343;50.152;8.182;2023-03-12T09:55:39;96908.59;;;2.94;100.00
31771;BME280;18343;50.152;8.182;2023-03-12T09:58:28;96899.66;;;3.03;100.00
31771;BME280;18343;50.152;8.182;2023-03-12T10:01:34;96908.97;;;3.08;100.00
31771;BME280;18343;50.152;8.182;2023-03-12T10:04:40;96910.94;;;2.97;100.00
31771;BME280;18343;50.152;8.182;2023-03-12T10:07:30;96902.03;;;3.15;100.00
31771;BME280;18343;50.152;8.182;2023-03-12T10:10:34;96911.56;;;2.91;100.00
31771;BME280;18343;50.152;8.182;2023-03-12T10:13:38;96917.19;;;2.88;100.00
31771;BME280;18343;50.152;8.182;2023-03-12T10:16:39;96919.09;;;2.78;100.00
31771;BME280;18343;50.152;8.182;2023-03-12T10:19:41;96912.31;;;3.10;100.00
31771;BME280;18343;50.152;8.182;2023-03-12T10:22:45;96914.19;;;3.17;100.00
31771;BME280;18343;50.152;8.182;2023-03-12T10:25:40;96910.41;;;3.28;100.00
31771;BME280;18343;50.152;8.182;2023-03-12T10:28:31;96908.44;;;3.38;100.00
31771;BME280;18343;50.152;8.182;2023-03-12T10:31:21;96898.34;;;3.58;100.00
31771;BME280;18343;50.152;8.182;2023-03-12T10:34:14;96881.44;;;3.67;100.00
31771;BME280;18343;50.152;8.182;2023-03-12T10:37:05;96881.09;;;3.70;100.00
31771;BME280;18343;50.152;8.182;2023-03-12T10:39:54;96875.94;;;3.68;100.00
31771;BME280;18343;50.152;8.182;2023-03-12T10:42:41;96889.22;;;3.60;100.00
31771;BME280;18343;50.152;8.182;2023-03-12T10:45:30;96880.13;;;3.71;100.00
31771;BME280;18343;50.152;8.182;2023-03-12T10:48:22;96881.09;;;3.62;100.00
31771;BME280;18343;50.152;8.182;2023-03-12T10:51:09;96886.28;;;3.96;100.00
31771;BME280;18343;50.152;8.182;2023-03-12T10:53:54;96887.81;;;4.06;100.00
31771;BME280;18343;50.152;8.182;2023-03-12T10:56:49;96886.47;;;4.27;100.00
31771;BME280;18343;50.152;8.182;2023-03-12T10:59:37;96892.97;;;4.32;100.00
31771;BME280;18343;50.152;8.182;2023-03-12T11:02:32;96901.59;;;4.42;100.00
31771;BME280;18343;50.152;8.182;2023-03-12T11:05:23;96903.41;;;4.42;100.00
31771;BME280;18343;50.152;8.182;2023-03-12T11:08:20;96895.59;;;4.49;100.00
31771;BME280;18343;50.152;8.182;2023-03-12T11:11:05;96893.28;;;4.54;100.00
31771;BME280;18343;50.152;8.182;2023-03-12T11:14:06;96894.22;;;4.77;100.00
31771;BME280;18343;50.152;8.182;2023-03-12T11:16:53;96902.22;;;4.77;100.00
31771;BME280;18343;50.152;8.182;2023-03-12T11:19:38;96896.72;;;4.79;100.00
31771;BME280;18343;50.152;8.182;2023-03-12T11:22:30;96894.91;;;4.71;100.00
31771;BME280;18343;50.152;8.182;2023-03-12T11:25:22;96886.41;;;4.67;100.00
31771;BME280;18343;50.152;8.182;2023-03-12T11:28:16;96894.22;;;4.69;100.00
31771;BME280;18343;50.152;8.182;2023-03-12T11:31:02;96895.72;;;4.80;100.00
31771;BME280;18343;50.152;8.182;2023-03-12T11:33:53;96895.81;;;5.02;100.00
31771;BME280;18343;50.152;8.182;2023-03-12T11:36:48;96887.78;;;5.19;100.00
31771;BME280;18343;50.152;8.182;2023-03-12T11:39:52;96890.06;;;5.30;100.00
31771;BME280;18343;50.152;8.182;2023-03-12T11:43:06;96895.94;;;5.56;100.00
31771;BME280;18343;50.152;8.182;2023-03-12T11:46:24;96902.47;;;5.76;100.00
31771;BME280;18343;50.152;8.182;2023-03-12T11:49:31;96900.59;;;5.85;100.00
31771;BME280;18343;50.152;8.182;2023-03-12T11:52:23;96901.47;;;5.77;100.00
31771;BME280;18343;50.152;8.182;2023-03-12T11:55:20;96892.34;;;5.72;100.00
31771;BME280;18343;50.152;8.182;2023-03-12T11:58:24;96900.47;;;5.78;100.00
31771;BME280;18343;50.152;8.182;2023-03-12T12:01:14;96889.56;;;5.65;100.00
31771;BME280;18343;50.152;8.182;2023-03-12T12:04:36;96895.69;;;5.74;100.00
31771;BME280;18343;50.152;8.182;2023-03-12T12:07:42;96878.28;;;5.78;100.00
31771;BME280;18343;50.152;8.182;2023-03-12T12:10:40;96873.63;;;5.80;100.00
31771;BME280;18343;50.152;8.182;2023-03-12T12:13:37;96879.09;;;5.87;100.00
31771;BME280;18343;50.152;8.182;2023-03-12T12:16:41;96872.00;;;6.02;100.00
31771;BME280;18343;50.152;8.182;2023-03-12T12:19:45;96863.88;;;6.18;100.00
31771;BME280;18343;50.152;8.182;2023-03-12T12:22:42;96870.72;;;6.35;100.00
31771;BME280;18343;50.152;8.182;2023-03-12T12:25:45;96867.50;;;6.77;100.00
31771;BME280;18343;50.152;8.182;2023-03-12T12:29:18;96860.13;;;7.24;100.00
31771;BME280;18343;50.152;8.182;2023-03-12T12:32:14;96859.91;;;7.55;100.00
31771;BME280;18343;50.152;8.182;2023-03-12T12:35:15;96862.34;;;7.71;100.00
31771;BME280;18343;50.152;8.182;2023-03-12T12:38:08;96858.03;;;7.55;100.00
31771;BME280;18343;50.152;8.182;2023-03-12T12:41:00;96855.75;;;7.88;100.00
31771;BME280;18343;50.152;8.182;2023-03-12T12:43:49;96860.13;;;7.96;100.00
31771;BME280;18343;50.152;8.182;2023-03-12T12:46:36;96856.44;;;7.97;100.00
31771;BME280;18343;50.152;8.182;2023-03-12T12:49:27;96861.94;;;7.89;100.00
31771;BME280;18343;50.152;8.182;2023-03-12T12:52:17;96861.38;;;8.14;100.00
31771;BME280;18343;50.152;8.182;2023-03-12T12:55:09;96869.25;;;8.23;100.00
31771;BME280;18343;50.152;8.182;2023-03-12T12:58:00;96860.25;;;8.30;100.00
31771;BME280;18343;50.152;8.182;2023-03-12T13:00:49;96864.31;;;8.41;100.00
31771;BME280;18343;50.152;8.182;2023-03-12T13:03:37;96866.59;;;8.44;100.00
31771;BME280;18343;50.152;8.182;2023-03-12T13:06:27;96846.09;;;8.58;100.00
31771;BME280;18343;50.152;8.182;2023-03-12T13:09:20;96847.63;;;8.67;100.00
31771;BME280;18343;50.152;8.182;2023-03-12T13:12:16;96849.94;;;8.76;100.00
31771;BME280;18343;50.152;8.182;2023-03-12T13:15:36;96838.69;;;8.88;100.00
31771;BME280;18343;50.152;8.182;2023-03-12T13:18:23;96840.09;;;8.83;100.00
31771;BME280;18343;50.152;8.182;2023-03-12T13:21:18;96838.56;;;8.68;100.00
31771;BME280;18343;50.152;8.182;2023-03-12T13:24:18;96838.09;;;8.92;100.00
31771;BME280;18343;50.152;8.182;2023-03-12T13:27:15;96838.53;;;8.96;100.00
31771;BME280;18343;50.152;8.182;2023-03-12T13:30:45;96848.28;;;9.10;100.00
31771;BME280;18343;50.152;8.182;2023-03-12T13:33:39;96848.50;;;9.08;100.00
31771;BME280;18343;50.152;8.182;2023-03-12T13:36:26;96841.03;;;9.04;100.00
31771;BME280;18343;50.152;8.182;2023-03-12T13:39:29;96837.75;;;9.02;100.00
31771;BME280;18343;50.152;8.182;2023-03-12T13:42:34;96842.47;;;9.00;100.00
31771;BME280;18343;50.152;8.182;2023-03-12T13:45:27;96852.78;;;9.03;100.00
31771;BME280;18343;50.152;8.182;2023-03-12T13:48:16;96842.66;;;8.98;100.00
31771;BME280;18343;50.152;8.182;2023-03-12T13:51:13;96848.03;;;8.98;100.00
31771;BME280;18343;50.152;8.182;2023-03-12T13:54:00;96859.81;;;9.04;100.00
31771;BME280;18343;50.152;8.182;2023-03-12T13:56:58;96856.28;;;9.03;100.00
31771;BME280;18343;50.152;8.182;2023-03-12T13:59:44;96856.34;;;9.10;100.00
31771;BME280;18343;50.152;8.182;2023-03-12T14:02:34;96841.53;;;9.21;100.00
31771;BME280;18343;50.152;8.182;2023-03-12T14:05:20;96848.38;;;9.23;100.00
31771;BME280;18343;50.152;8.182;2023-03-12T14:08:14;96841.53;;;9.21;100.00
31771;BME280;18343;50.152;8.182;2023-03-12T14:11:29;96843.13;;;9.08;100.00
31771;BME280;18343;50.152;8.182;2023-03-12T14:17:43;96833.56;;;9.34;100.00
31771;BME280;18343;50.152;8.182;2023-03-12T14:20:32;96835.19;;;9.28;100.00
31771;BME280;18343;50.152;8.182;2023-03-12T14:23:21;96820.59;;;9.44;100.00
31771;BME280;18343;50.152;8.182;2023-03-12T14:26:24;96818.78;;;9.51;100.00
31771;BME280;18343;50.152;8.182;2023-03-12T14:29:19;96818.16;;;9.49;100.00
31771;BME280;18343;50.152;8.182;2023-03-12T14:32:14;96829.44;;;9.38;100.00
31771;BME280;18343;50.152;8.182;2023-03-12T14:35:16;96830.06;;;9.40;100.00
31771;BME280;18343;50.152;8.182;2023-03-12T14:38:04;96818.38;;;9.61;100.00
31771;BME280;18343;50.152;8.182;2023-03-12T14:40:54;96818.56;;;9.59;100.00
31771;BME280;18343;50.152;8.182;2023-03-12T14:43:42;96816.59;;;9.88;100.00
31771;BME280;18343;50.152;8.182;2023-03-12T14:46:26;96820.53;;;9.92;100.00
31771;BME280;18343;50.152;8.182;2023-03-12T14:49:19;96824.06;;;9.99;100.00
31771;BME280;18343;50.152;8.182;2023-03-12T14:52:04;96822.81;;;9.95;100.00
31771;BME280;18343;50.152;8.182;2023-03-12T14:54:57;96815.78;;;9.94;100.00
31771;BME280;18343;50.152;8.182;2023-03-12T14:57:43;96820.78;;;10.10;100.00
31771;BME280;18343;50.152;8.182;2023-03-12T15:00:28;96820.56;;;10.11;100.00
31771;BME280;18343;50.152;8.182;2023-03-12T15:03:15;96814.75;;;9.95;100.00
31771;BME280;18343;50.152;8.182;2023-03-12T15:06:01;96818.72;;;10.12;100.00